Time;durP1;ratioP1;P1;durP2;ratioP2;P2;SDS_P1;SDS_P2;PMS_P1;PMS_P2;Temp;Humidity;BMP_temperature;BMP_pressure;BME280_temperature;BME280_humidity;BME280_pressure;Samples;Min_cycle;Max_cycle;Signal;HPM_P1;HPM_P2
2023/08/18 00:00:02;;;;;;;18.40;12.43;;;;;;;-146.82;100.00;71671.09;5050629;28;20500;-81
2023/08/18 00:02:30;;;;;;;15.43;10.40;;;;;;;-146.82;100.00;71671.09;5052068;28;20082;-82
2023/08/18 00:05:13;;;;;;;12.88;9.98;;;;;;;-146.82;100.00;71671.09;5051603;28;20084;-82
2023/08/18 00:07:49;;;;;;;19.50;11.73;;;;;;;-146.82;100.00;71671.09;5051370;28;20047;-81
2023/08/18 00:10:20;;;;;;;14.95;10.57;;;;;;;-146.82;100.00;71671.09;5051213;28;20433;-82
2023/08/18 00:12:46;;;;;;;14.60;11.48;;;;;;;-146.82;100.00;71671.09;5051689;28;20121;-82
2023/08/18 00:15:14;;;;;;;13.63;10.63;;;;;;;-146.82;100.00;71671.09;5052881;28;20033;-81
2023/08/18 00:17:42;;;;;;;15.93;10.75;;;;;;;-146.82;100.00;71671.09;5052950;28;20049;-82
2023/08/18 00:20:09;;;;;;;16.55;10.77;;;;;;;-146.82;100.00;71671.09;5054470;28;20223;-82
2023/08/18 00:22:36;;;;;;;14.85;10.95;;;;;;;-146.82;100.00;71671.09;5055324;28;20063;-81
2023/08/18 00:25:02;;;;;;;13.38;10.55;;;;;;;-146.82;100.00;71671.09;5038599;28;20117;-81
2023/08/18 00:27:28;;;;;;;15.38;10.57;;;;;;;-146.82;100.00;71671.09;5056068;28;20071;-81
2023/08/18 00:29:54;;;;;;;13.30;11.20;;;;;;;-146.82;100.00;71671.09;5056306;28;20033;-81
2023/08/18 00:32:22;;;;;;;14.32;10.73;;;;;;;-146.82;100.00;71671.09;5056443;28;20029;-81
2023/08/18 00:34:49;;;;;;;14.65;11.00;;;;;;;-146.82;100.00;71671.09;5056400;28;20071;-81
2023/08/18 00:37:16;;;;;;;17.50;11.05;;;;;;;-146.82;100.00;71671.09;5056289;28;20029;-82
2023/08/18 00:39:42;;;;;;;13.50;10.25;;;;;;;-146.82;100.00;71671.09;5056389;28;20029;-82
2023/08/18 00:42:07;;;;;;;13.60;11.02;;;;;;;-146.82;100.00;71671.09;5055225;28;20052;-81
2023/08/18 00:44:34;;;;;;;17.73;10.90;;;;;;;-146.82;100.00;71671.09;5054325;28;20055;-80
2023/08/18 00:47:01;;;;;;;14.98;11.43;;;;;;;-146.82;100.00;71671.09;5056593;28;20116;-81
2023/08/18 00:49:35;;;;;;;13.48;11.10;;;;;;;-146.82;100.00;71671.09;5055144;28;20040;-81
2023/08/18 00:52:03;;;;;;;14.20;11.63;;;;;;;-146.82;100.00;71671.09;5054711;28;20032;-80
2023/08/18 00:54:31;;;;;;;16.70;10.95;;;;;;;-146.82;100.00;71671.09;5056161;28;20032;-82
2023/08/18 00:56:58;;;;;;;13.73;11.15;;;;;;;-146.82;100.00;71671.09;5055013;28;20037;-81
2023/08/18 00:59:32;;;;;;;18.08;11.15;;;;;;;-146.82;100.00;71671.09;5054900;28;20095;-81
2023/08/18 01:02:02;;;;;;;15.95;11.60;;;;;;;-146.82;100.00;71671.09;5054587;28;20492;-81
2023/08/18 01:04:30;;;;;;;15.88;10.60;;;;;;;-146.82;100.00;71671.09;5055507;28;20057;-80
2023/08/18 01:06:56;;;;;;;17.25;11.38;;;;;;;-146.82;100.00;71671.09;5038106;28;20486;-80
2023/08/18 01:09:23;;;;;;;14.88;10.82;;;;;;;-146.82;100.00;71671.09;5037805;28;20045;-81
2023/08/18 01:12:18;;;;;;;19.00;11.40;;;;;;;-146.82;100.00;71671.09;5037779;28;20035;-81
2023/08/18 01:15:23;;;;;;;18.83;11.77;;;;;;;-146.82;100.00;71671.09;5055766;28;20029;-81
2023/08/18 01:17:55;;;;;;;20.83;11.93;;;;;;;-146.82;100.00;71671.09;5055414;28;20033;-82
2023/08/18 01:20:22;;;;;;;16.98;11.85;;;;;;;-146.82;100.00;71671.09;5037613;28;20102;-81
2023/08/18 01:22:55;;;;;;;15.02;11.93;;;;;;;-146.82;100.00;71671.09;5054061;28;20036;-81
2023/08/18 01:25:21;;;;;;;15.73;11.55;;;;;;;-146.82;100.00;71671.09;5054108;28;20482;-82
2023/08/18 01:27:50;;;;;;;15.10;11.60;;;;;;;-146.82;100.00;71671.09;5055393;28;20075;-81
2023/08/18 01:30:16;;;;;;;17.42;11.95;;;;;;;-146.82;100.00;71671.09;5055278;28;20501;-81
2023/08/18 01:33:00;;;;;;;15.30;11.77;;;;;;;-146.82;100.00;71671.09;5053643;28;20033;-81
2023/08/18 01:35:31;;;;;;;17.85;12.10;;;;;;;-146.82;100.00;71671.09;5053504;28;20036;-82
2023/08/18 01:37:58;;;;;;;17.95;11.82;;;;;;;-146.82;100.00;71671.09;5053993;28;20045;-81
2023/08/18 01:40:28;;;;;;;17.02;12.48;;;;;;;-146.82;100.00;71671.09;5053263;28;20029;-82
2023/08/18 01:43:15;;;;;;;19.23;12.93;;;;;;;-146.82;100.00;71671.09;5036946;28;20041;-81
2023/08/18 01:45:40;;;;;;;17.58;12.13;;;;;;;-146.82;100.00;71671.09;5054298;28;20041;-82
2023/08/18 01:48:07;;;;;;;16.77;13.15;;;;;;;-146.82;100.00;71671.09;5054256;28;20044;-82
2023/08/18 01:50:33;;;;;;;20.80;13.45;;;;;;;-146.82;100.00;71671.09;5054733;28;20037;-82
2023/08/18 01:53:05;;;;;;;19.15;13.15;;;;;;;-146.82;100.00;71671.09;5053958;28;20021;-81
2023/08/18 01:55:36;;;;;;;18.40;13.43;;;;;;;-146.82;100.00;71671.09;5052145;28;20474;-81
2023/08/18 01:58:01;;;;;;;;;;;;;;;-146.82;100.00;71671.09;5052702;28;20466;-81
2023/08/18 02:00:27;;;;;;;20.63;13.18;;;;;;;-146.82;100.00;71671.09;5053972;28;19919;-81
2023/08/18 02:02:52;;;;;;;19.30;13.32;;;;;;;-146.82;100.00;71671.09;5053677;28;20074;-81
2023/08/18 02:05:20;;;;;;;19.55;13.07;;;;;;;-146.82;100.00;71671.09;5053289;28;20127;-82
2023/08/18 02:07:47;;;;;;;18.60;13.45;;;;;;;-146.82;100.00;71671.09;5054088;28;20032;-81
2023/08/18 02:10:13;;;;;;;16.75;12.85;;;;;;;-146.82;100.00;71671.09;5054651;28;20066;-81
2023/08/18 02:12:39;;;;;;;19.55;13.25;;;;;;;-146.82;100.00;71671.09;5052687;28;20036;-81
2023/08/18 02:15:08;;;;;;;20.10;13.40;;;;;;;-146.82;100.00;71671.09;5054442;28;20041;-81
2023/08/18 02:17:35;;;;;;;18.05;13.88;;;;;;;-146.82;100.00;71671.09;5054323;28;20029;-81
2023/08/18 02:20:01;;;;;;;22.05;13.70;;;;;;;-146.82;100.00;71671.09;5054489;28;20029;-81
2023/08/18 02:22:28;;;;;;;22.20;14.63;;;;;;;-146.82;100.00;71671.09;5054614;28;20154;-82
2023/08/18 02:24:53;;;;;;;23.48;14.85;;;;;;;-146.82;100.00;71671.09;5054520;28;20025;-80
2023/08/18 02:27:19;;;;;;;21.40;13.73;;;;;;;-146.82;100.00;71671.09;5019898;28;20033;-81
2023/08/18 02:29:46;;;;;;;19.88;14.32;;;;;;;-146.82;100.00;71671.09;5036420;28;20027;-81
2023/08/18 02:32:13;;;;;;;19.92;14.75;;;;;;;-146.82;100.00;71671.09;5052712;28;20398;-81
2023/08/18 02:34:39;;;;;;;21.80;14.57;;;;;;;-146.82;100.00;71671.09;5052729;28;20052;-81
2023/08/18 02:37:04;;;;;;;22.65;14.15;;;;;;;-146.82;100.00;71671.09;5051907;28;20080;-81
2023/08/18 02:39:31;;;;;;;20.42;14.27;;;;;;;-146.82;100.00;71671.09;5053252;28;20064;-81
2023/08/18 02:41:57;;;;;;;20.15;13.45;;;;;;;-146.82;100.00;71671.09;5052753;28;20111;-81
2023/08/18 02:44:25;;;;;;;21.83;14.45;;;;;;;-146.82;100.00;71671.09;5053275;28;20037;-81
2023/08/18 02:46:52;;;;;;;18.55;13.05;;;;;;;-146.82;100.00;71671.09;5053750;28;20158;-81
2023/08/18 02:49:26;;;;;;;20.58;13.85;;;;;;;-146.82;100.00;71671.09;5036039;28;20363;-81
2023/08/18 02:51:51;;;;;;;22.85;13.73;;;;;;;-146.82;100.00;71671.09;5052842;28;20039;-81
2023/08/18 02:54:19;;;;;;;24.02;15.25;;;;;;;-146.82;100.00;71671.09;5035868;28;20029;-80
2023/08/18 02:56:48;;;;;;;24.98;14.43;;;;;;;-146.82;100.00;71671.09;5052398;28;20029;-81
2023/08/18 02:59:17;;;;;;;18.92;13.48;;;;;;;-146.82;100.00;71671.09;5054055;28;20051;-81
2023/08/18 03:01:43;;;;;;;20.23;13.73;;;;;;;-146.82;100.00;71671.09;5057807;28;20028;-81
2023/08/18 03:04:10;;;;;;;20.95;14.18;;;;;;;-146.82;100.00;71671.09;5062789;28;20052;-81
2023/08/18 03:06:35;;;;;;;21.42;15.05;;;;;;;-146.82;100.00;71671.09;5065689;28;20100;-81
2023/08/18 03:09:03;;;;;;;21.42;15.05;;;;;;;-146.82;100.00;71671.09;5060065;28;20137;-81
2023/08/18 03:11:29;;;;;;;18.92;14.02;;;;;;;-146.82;100.00;71671.09;5045142;28;20106;-80
2023/08/18 03:13:57;;;;;;;21.27;13.50;;;;;;;-146.82;100.00;71671.09;5061791;28;20111;-82
2023/08/18 03:16:25;;;;;;;23.80;13.90;;;;;;;-146.82;100.00;71671.09;5056143;28;20458;-81
2023/08/18 03:18:53;;;;;;;25.40;15.30;;;;;;;-146.82;100.00;71671.09;5054130;28;20124;-81
2023/08/18 03:21:18;;;;;;;34.03;16.55;;;;;;;-146.82;100.00;71671.09;5052901;28;20132;-81
2023/08/18 03:23:45;;;;;;;30.50;16.70;;;;;;;-146.82;100.00;71671.09;5053570;28;20478;-81
2023/08/18 03:26:11;;;;;;;24.15;14.65;;;;;;;-146.82;100.00;71671.09;5052173;28;20075;-81
2023/08/18 03:28:52;;;;;;;19.30;13.82;;;;;;;-146.82;100.00;71671.09;5052508;28;20025;-81
2023/08/18 03:31:19;;;;;;;19.73;13.80;;;;;;;-146.82;100.00;71671.09;5052605;28;20033;-81
2023/08/18 03:33:46;;;;;;;22.98;14.50;;;;;;;-146.82;100.00;71671.09;5052296;28;20021;-81
2023/08/18 03:36:12;;;;;;;22.92;14.95;;;;;;;-146.82;100.00;71671.09;5053575;28;20017;-82
2023/08/18 03:38:40;;;;;;;23.60;14.88;;;;;;;-146.82;100.00;71671.09;5053303;28;20029;-81
2023/08/18 03:41:07;;;;;;;22.10;14.98;;;;;;;-146.82;100.00;71671.09;5053322;28;20021;-81
2023/08/18 03:43:33;;;;;;;18.80;13.68;;;;;;;-146.82;100.00;71671.09;5052242;28;20032;-81
2023/08/18 03:46:03;;;;;;;18.73;12.98;;;;;;;-146.82;100.00;71671.09;5052718;28;20021;-82
2023/08/18 03:48:28;;;;;;;20.65;13.05;;;;;;;-146.82;100.00;71671.09;5035947;28;20029;-80
2023/08/18 03:50:55;;;;;;;19.50;13.73;;;;;;;-146.82;100.00;71671.09;5052786;28;20482;-83
2023/08/18 03:53:22;;;;;;;17.98;13.50;;;;;;;-146.82;100.00;71671.09;5053452;28;20108;-81
2023/08/18 03:55:55;;;;;;;17.60;13.13;;;;;;;-146.82;100.00;71671.09;5054152;28;20033;-81
2023/08/18 03:58:22;;;;;;;18.05;13.43;;;;;;;-146.82;100.00;71671.09;5056061;28;20028;-81
2023/08/18 04:00:49;;;;;;;18.25;13.05;;;;;;;-146.82;100.00;71671.09;5057023;28;20025;-81
2023/08/18 04:03:16;;;;;;;21.88;14.20;;;;;;;-146.82;100.00;71671.09;5056879;28;20025;-82
2023/08/18 04:05:45;;;;;;;20.88;14.40;;;;;;;-146.82;100.00;71671.09;5055815;28;20025;-81
2023/08/18 04:08:15;;;;;;;20.83;14.40;;;;;;;-146.82;100.00;71671.09;5055599;28;20413;-80
2023/08/18 04:10:41;;;;;;;20.23;12.90;;;;;;;-146.82;100.00;71671.09;5056990;28;20032;-81
2023/08/18 04:13:09;;;;;;;20.25;14.10;;;;;;;-146.82;100.00;71671.09;5022394;28;20025;-82
2023/08/18 04:15:34;;;;;;;21.73;14.63;;;;;;;-146.82;100.00;71671.09;5055710;28;20351;-81
2023/08/18 04:18:01;;;;;;;21.73;15.18;;;;;;;-146.82;100.00;71671.09;5055358;28;20037;-81
2023/08/18 04:20:29;;;;;;;22.58;13.85;;;;;;;-146.82;100.00;71671.09;5055227;28;20496;-81
2023/08/18 04:22:56;;;;;;;21.08;14.43;;;;;;;-146.82;100.00;71671.09;5056032;28;20036;-80
2023/08/18 04:25:22;;;;;;;20.60;13.45;;;;;;;-146.82;100.00;71671.09;5055156;28;20025;-81
2023/08/18 04:27:49;;;;;;;19.92;13.35;;;;;;;-146.82;100.00;71671.09;5056816;28;20027;-82
2023/08/18 04:30:15;;;;;;;22.55;13.82;;;;;;;-146.82;100.00;71671.09;5056553;28;20017;-81
2023/08/18 04:32:43;;;;;;;21.27;14.15;;;;;;;-146.82;100.00;71671.09;5038565;28;20025;-82
2023/08/18 04:35:08;;;;;;;21.67;14.48;;;;;;;-146.82;100.00;71671.09;5055212;28;20088;-81
2023/08/18 04:37:35;;;;;;;18.95;13.57;;;;;;;-146.82;100.00;71671.09;5038364;28;20449;-81
2023/08/18 04:40:04;;;;;;;17.85;12.20;;;;;;;-146.82;100.00;71671.09;5055074;28;20048;-81
2023/08/18 04:42:31;;;;;;;17.20;11.95;;;;;;;-146.82;100.00;71671.09;5056433;28;20028;-81
2023/08/18 04:44:57;;;;;;;16.77;11.75;;;;;;;-146.82;100.00;71671.09;5056034;28;20028;-81
2023/08/18 04:47:23;;;;;;;15.50;11.70;;;;;;;-146.82;100.00;71671.09;5054854;28;20025;-81
2023/08/18 04:49:52;;;;;;;16.30;12.27;;;;;;;-146.82;100.00;71671.09;5055787;28;20017;-82
2023/08/18 04:52:19;;;;;;;16.02;11.93;;;;;;;-146.82;100.00;71671.09;5055833;28;20104;-82
2023/08/18 04:54:46;;;;;;;20.05;12.30;;;;;;;-146.82;100.00;71671.09;5038662;28;20031;-81
2023/08/18 04:57:13;;;;;;;14.27;12.10;;;;;;;-146.82;100.00;71671.09;5055784;28;20021;-81
2023/08/18 04:59:40;;;;;;;14.52;10.85;;;;;;;-146.82;100.00;71671.09;5053902;28;20033;-81
2023/08/18 05:02:07;;;;;;;13.80;11.70;;;;;;;-146.82;100.00;71671.09;5055302;28;20033;-80
2023/08/18 05:04:33;;;;;;;16.85;11.00;;;;;;;-146.82;100.00;71671.09;5055375;28;20521;-80
2023/08/18 05:06:59;;;;;;;12.95;11.02;;;;;;;-146.82;100.00;71671.09;5054688;28;20055;-79
2023/08/18 05:09:32;;;;;;;15.38;11.35;;;;;;;-146.82;100.00;71671.09;5055987;28;20021;-77
2023/08/18 05:11:57;;;;;;;14.35;11.23;;;;;;;-146.82;100.00;71671.09;5054512;28;20164;-80
2023/08/18 05:14:24;;;;;;;17.15;11.70;;;;;;;-146.82;100.00;71671.09;5055651;28;20525;-77
2023/08/18 05:16:57;;;;;;;15.07;11.85;;;;;;;-146.82;100.00;71671.09;5066455;28;20056;-75
2023/08/18 05:19:23;;;;;;;19.45;11.23;;;;;;;-146.82;100.00;71671.09;5063902;28;20082;-79
2023/08/18 05:21:49;;;;;;;15.55;11.95;;;;;;;-146.82;100.00;71671.09;5054313;28;20460;-77
2023/08/18 05:24:15;;;;;;;17.10;12.43;;;;;;;-146.82;100.00;71671.09;5062397;28;20110;-75
2023/08/18 05:26:42;;;;;;;17.35;11.52;;;;;;;-146.82;100.00;71671.09;5061666;28;20121;-74
2023/08/18 05:29:10;;;;;;;14.07;11.10;;;;;;;-146.82;100.00;71671.09;5075128;28;20035;-76
2023/08/18 05:31:37;;;;;;;15.15;11.30;;;;;;;-146.82;100.00;71671.09;5085208;28;20020;-75
2023/08/18 05:34:04;;;;;;;14.98;9.30;;;;;;;-146.82;100.00;71671.09;5075403;28;20034;-79
2023/08/18 05:36:33;;;;;;;17.13;10.95;;;;;;;-146.82;100.00;71671.09;5075082;28;20351;-76
2023/08/18 05:38:59;;;;;;;36.08;13.27;;;;;;;-146.82;100.00;71671.09;5074890;28;20082;-75
2023/08/18 05:41:27;;;;;;;22.40;11.90;;;;;;;-146.82;100.00;71671.09;5075208;28;20020;-75
2023/08/18 05:43:52;;;;;;;14.32;10.23;;;;;;;-146.82;100.00;71671.09;5073878;28;20493;-78
2023/08/18 05:46:17;;;;;;;13.43;9.88;;;;;;;-146.82;100.00;71671.09;5073410;28;20024;-77
2023/08/18 05:48:46;;;;;;;16.25;11.07;;;;;;;-146.82;100.00;71671.09;5071976;28;20040;-77
2023/08/18 05:51:16;;;;;;;13.35;10.23;;;;;;;-146.82;100.00;71671.09;5071792;28;20040;-77
2023/08/18 05:53:47;;;;;;;15.07;10.53;;;;;;;-146.82;100.00;71671.09;5072364;28;20076;-78
2023/08/18 05:56:13;;;;;;;12.98;9.68;;;;;;;-146.82;100.00;71671.09;5073674;28;20093;-77
2023/08/18 05:58:38;;;;;;;29.80;13.07;;;;;;;-146.82;100.00;71671.09;5074423;28;20465;-79
2023/08/18 06:01:11;;;;;;;19.17;10.65;;;;;;;-146.82;100.00;71671.09;5070825;28;20115;-78
2023/08/18 06:03:38;;;;;;;13.05;9.25;;;;;;;-146.82;100.00;71671.09;5088048;28;20048;-76
2023/08/18 06:06:09;;;;;;;12.70;10.35;;;;;;;-146.82;100.00;71671.09;5072953;28;20102;-77
2023/08/18 06:08:35;;;;;;;13.75;9.05;;;;;;;-146.82;100.00;71671.09;5072148;28;20066;-78
2023/08/18 06:11:01;;;;;;;14.18;8.75;;;;;;;-146.82;100.00;71671.09;5073399;28;20374;-78
2023/08/18 06:13:29;;;;;;;12.20;8.05;;;;;;;-146.82;100.00;71671.09;5072995;28;20037;-79
2023/08/18 06:15:56;;;;;;;11.35;9.07;;;;;;;-146.82;100.00;71671.09;5072964;28;20077;-77
2023/08/18 06:18:23;;;;;;;11.55;8.75;;;;;;;-146.82;100.00;71671.09;5072805;28;20523;-77
2023/08/18 06:20:52;;;;;;;14.02;8.48;;;;;;;-146.82;100.00;71671.09;5074114;28;20149;-76
2023/08/18 06:23:18;;;;;;;10.55;9.07;;;;;;;-146.82;100.00;71671.09;5063695;28;20028;-76
2023/08/18 06:25:46;;;;;;;10.38;8.00;;;;;;;-146.82;100.00;71671.09;5068990;28;20029;-76
2023/08/18 06:28:11;;;;;;;13.43;8.57;;;;;;;-146.82;100.00;71671.09;5061355;28;20028;-75
2023/08/18 06:30:37;;;;;;;9.00;7.70;;;;;;;-146.82;100.00;71671.09;5072963;28;20036;-76
2023/08/18 06:33:08;;;;;;;9.30;7.90;;;;;;;-146.82;100.00;71671.09;5068924;28;20547;-77
2023/08/18 06:35:33;;;;;;;11.82;7.97;;;;;;;-146.82;100.00;71671.09;5080661;28;20020;-77
2023/08/18 06:38:01;;;;;;;10.23;7.72;;;;;;;-146.82;100.00;71671.09;5093957;28;20559;-76
2023/08/18 06:40:27;;;;;;;11.85;7.72;;;;;;;-146.82;100.00;71671.09;5093907;28;20099;-76
2023/08/18 06:42:53;;;;;;;14.15;8.80;;;;;;;-146.82;100.00;71671.09;5086164;28;20113;-76
2023/08/18 06:45:20;;;;;;;11.80;7.47;;;;;;;-146.82;100.00;71671.09;5073545;28;20027;-75
2023/08/18 06:47:54;;;;;;;11.65;6.90;;;;;;;-146.82;100.00;71671.09;5073367;28;20036;-76
2023/08/18 06:50:20;;;;;;;8.45;7.18;;;;;;;-146.82;100.00;71671.09;5073835;28;20028;-76
2023/08/18 06:52:47;;;;;;;12.52;8.18;;;;;;;-146.82;100.00;71671.09;5061136;28;20068;-76
2023/08/18 06:55:14;;;;;;;8.75;7.50;;;;;;;-146.82;100.00;71671.09;5053511;28;20037;-77
2023/08/18 06:57:41;;;;;;;8.73;6.53;;;;;;;-146.82;100.00;71671.09;5053577;28;20057;-76
2023/08/18 07:00:18;;;;;;;11.95;6.53;;;;;;;-146.82;100.00;71671.09;5055905;28;20029;-75
2023/08/18 07:02:44;;;;;;;10.30;7.88;;;;;;;-146.82;100.00;71671.09;5052451;28;20021;-76
2023/08/18 07:05:12;;;;;;;13.02;7.65;;;;;;;-146.82;100.00;71671.09;5053233;28;20139;-75
2023/08/18 07:07:38;;;;;;;8.13;6.65;;;;;;;-146.82;100.00;71671.09;5053180;28;20021;-75
2023/08/18 07:10:04;;;;;;;7.93;6.60;;;;;;;-146.82;100.00;71671.09;5063688;28;20078;-76
2023/08/18 07:12:32;;;;;;;9.02;7.38;;;;;;;-146.82;100.00;71671.09;5073493;28;20043;-76
2023/08/18 07:15:03;;;;;;;10.77;6.95;;;;;;;-146.82;100.00;71671.09;5072056;28;20031;-76
2023/08/18 07:17:30;;;;;;;11.85;7.47;;;;;;;-146.82;100.00;71671.09;5055418;28;20040;-76
2023/08/18 07:19:55;;;;;;;20.20;8.48;;;;;;;-146.82;100.00;71671.09;5067321;28;20067;-76
2023/08/18 07:22:22;;;;;;;10.68;7.10;;;;;;;-146.82;100.00;71671.09;5074414;28;20040;-76
2023/08/18 07:24:48;;;;;;;15.25;7.93;;;;;;;-146.82;100.00;71671.09;5078403;28;20020;-75
2023/08/18 07:27:15;;;;;;;8.57;7.63;;;;;;;-146.82;100.00;71671.09;5082861;28;20059;-78
2023/08/18 07:29:42;;;;;;;8.63;7.38;;;;;;;-146.82;100.00;71671.09;5078060;28;20034;-78
2023/08/18 07:32:07;;;;;;;8.93;7.15;;;;;;;-146.82;100.00;71671.09;5079229;28;20024;-77
2023/08/18 07:34:39;;;;;;;10.57;7.22;;;;;;;-146.82;100.00;71671.09;5060582;28;20474;-78
2023/08/18 07:37:05;;;;;;;24.50;9.10;;;;;;;-146.82;100.00;71671.09;5057879;28;20044;-77
2023/08/18 07:39:31;;;;;;;9.55;6.72;;;;;;;-146.82;100.00;71671.09;5056456;28;20035;-77
2023/08/18 07:41:56;;;;;;;10.07;6.70;;;;;;;-146.82;100.00;71671.09;5057377;28;20450;-77
2023/08/18 07:44:22;;;;;;;10.43;7.90;;;;;;;-146.82;100.00;71671.09;5056104;28;20090;-75
2023/08/18 07:46:51;;;;;;;10.38;7.25;;;;;;;-146.82;100.00;71671.09;5074758;28;20028;-78
2023/08/18 07:49:18;;;;;;;9.50;6.78;;;;;;;-146.82;100.00;71671.09;5082387;28;20091;-76
2023/08/18 07:51:43;;;;;;;13.57;7.10;;;;;;;-146.82;100.00;71671.09;5075269;28;20025;-79
2023/08/18 07:54:09;;;;;;;10.90;8.00;;;;;;;-146.82;100.00;71671.09;5075418;28;20469;-76
2023/08/18 07:56:34;;;;;;;16.58;8.00;;;;;;;-146.82;100.00;71671.09;5076679;28;20047;-79
2023/08/18 07:59:01;;;;;;;20.25;8.57;;;;;;;-146.82;100.00;71671.09;5092165;28;20540;-77
2023/08/18 08:01:33;;;;;;;27.45;9.65;;;;;;;-146.82;100.00;71671.09;5076404;28;20021;-78
2023/08/18 08:03:59;;;;;;;21.25;7.93;;;;;;;-146.82;100.00;71671.09;5076190;28;20049;-76
2023/08/18 08:06:26;;;;;;;15.27;7.95;;;;;;;-146.82;100.00;71671.09;5076747;28;20474;-78
2023/08/18 08:08:53;;;;;;;13.50;8.30;;;;;;;-146.82;100.00;71671.09;5076531;28;20090;-82
2023/08/18 08:11:18;;;;;;;20.77;8.65;;;;;;;-146.82;100.00;71671.09;5076792;28;20024;-81
2023/08/18 08:13:46;;;;;;;17.33;8.90;;;;;;;-146.82;100.00;71671.09;5076578;28;20024;-81
2023/08/18 08:16:13;;;;;;;10.98;8.13;;;;;;;-146.82;100.00;71671.09;5076347;28;20457;-81
2023/08/18 08:18:38;;;;;;;8.93;7.35;;;;;;;-146.82;100.00;71671.09;5075199;28;20465;-82
2023/08/18 08:21:03;;;;;;;9.88;7.40;;;;;;;-146.82;100.00;71671.09;5076044;28;20036;-77
2023/08/18 08:23:29;;;;;;;10.95;7.47;;;;;;;-146.82;100.00;71671.09;5076450;28;20028;-78
2023/08/18 08:25:56;;;;;;;13.93;7.95;;;;;;;-146.82;100.00;71671.09;5091414;28;20111;-80
2023/08/18 08:28:21;;;;;;;15.02;7.72;;;;;;;-146.82;100.00;71671.09;5076044;28;20024;-81
2023/08/18 08:30:48;;;;;;;17.77;8.27;;;;;;;-146.82;100.00;71671.09;5076054;28;20051;-83
2023/08/18 08:33:13;;;;;;;8.32;6.82;;;;;;;-146.82;100.00;71671.09;5076399;28;20024;-80
2023/08/18 08:35:40;;;;;;;7.75;7.00;;;;;;;-146.82;100.00;71671.09;5075472;28;20038;-85
2023/08/18 08:38:07;;;;;;;9.18;6.70;;;;;;;-146.82;100.00;71671.09;5076552;28;20422;-77
2023/08/18 08:40:32;;;;;;;9.00;6.35;;;;;;;-146.82;100.00;71671.09;5075772;28;20032;-78
2023/08/18 08:42:59;;;;;;;7.13;6.53;;;;;;;-146.82;100.00;71671.09;5074779;28;20027;-77
2023/08/18 08:45:27;;;;;;;7.25;5.85;;;;;;;-146.82;100.00;71671.09;5076301;28;20029;-77
2023/08/18 08:47:58;;;;;;;6.72;6.00;;;;;;;-146.82;100.00;71671.09;5074695;28;20032;-80
2023/08/18 08:50:28;;;;;;;9.30;6.40;;;;;;;-146.82;100.00;71671.09;5055465;28;20036;-82
2023/08/18 08:52:56;;;;;;;6.35;5.72;;;;;;;-146.82;100.00;71671.09;5056041;28;20113;-84
2023/08/18 08:55:24;;;;;;;14.80;7.05;;;;;;;-146.82;100.00;71671.09;5061354;28;20029;-84
2023/08/18 08:57:50;;;;;;;7.10;5.68;;;;;;;-146.82;100.00;71671.09;5060695;28;20037;-78
2023/08/18 09:00:16;;;;;;;7.70;6.25;;;;;;;-146.82;100.00;71671.09;5047034;28;20079;-76
2023/08/18 09:02:45;;;;;;;6.75;5.32;;;;;;;-146.82;100.00;71671.09;5055156;28;20032;-82
2023/08/18 09:05:13;;;;;;;6.13;5.57;;;;;;;-146.82;100.00;71671.09;5114559;28;20052;-85
2023/08/18 09:07:40;;;;;;;11.88;5.97;;;;;;;-146.82;100.00;71671.09;5083957;28;20054;-79
2023/08/18 09:10:06;;;;;;;8.68;5.97;;;;;;;-146.82;100.00;71671.09;5089783;28;20084;-81
2023/08/18 09:12:32;;;;;;;6.63;5.75;;;;;;;-146.82;100.00;71671.09;5095910;28;20376;-87
2023/08/18 09:14:59;;;;;;;7.07;5.68;;;;;;;-146.82;100.00;71671.09;5088636;28;20448;-83
2023/08/18 09:17:26;;;;;;;7.18;5.20;;;;;;;-146.82;100.00;71671.09;5074886;28;20032;-80
2023/08/18 09:19:56;;;;;;;9.50;5.22;;;;;;;-146.82;100.00;71671.09;5071312;28;20189;-79
2023/08/18 09:22:22;;;;;;;8.63;6.32;;;;;;;-146.82;100.00;71671.09;5074207;28;20028;-79
2023/08/18 09:24:55;;;;;;;8.68;5.80;;;;;;;-146.82;100.00;71671.09;5057174;28;20043;-78
2023/08/18 09:27:21;;;;;;;8.23;5.80;;;;;;;-146.82;100.00;71671.09;5065804;28;20036;-81
2023/08/18 09:29:46;;;;;;;5.80;5.30;;;;;;;-146.82;100.00;71671.09;5065806;28;20043;-81
2023/08/18 09:32:12;;;;;;;10.35;5.32;;;;;;;-146.82;100.00;71671.09;5060652;28;20450;-80
2023/08/18 09:34:42;;;;;;;7.93;5.55;;;;;;;-146.82;100.00;71671.09;5036599;28;20035;-78
2023/08/18 09:37:28;;;;;;;6.25;5.65;;;;;;;-146.82;100.00;71671.09;5036813;28;20035;-77
2023/08/18 09:39:55;;;;;;;10.35;5.07;;;;;;;-146.82;100.00;71671.09;5053758;28;20126;-77
2023/08/18 09:42:21;;;;;;;6.70;5.40;;;;;;;-146.82;100.00;71671.09;5056840;28;20033;-76
2023/08/18 09:44:47;;;;;;;8.95;6.15;;;;;;;-146.82;100.00;71671.09;5054353;28;20127;-77
2023/08/18 09:47:13;;;;;;;9.13;6.50;;;;;;;-146.82;100.00;71671.09;5068322;28;20071;-81
2023/08/18 09:49:40;;;;;;;6.88;5.40;;;;;;;-146.82;100.00;71671.09;5053974;28;20039;-78
2023/08/18 09:52:11;;;;;;;5.95;4.90;;;;;;;-146.82;100.00;71671.09;5069841;28;20024;-78
2023/08/18 09:54:44;;;;;;;10.82;5.97;;;;;;;-146.82;100.00;71671.09;5074313;28;20032;-77
2023/08/18 09:57:28;;;;;;;7.18;5.57;;;;;;;-146.82;100.00;71671.09;5090306;28;20033;-76
2023/08/18 09:59:57;;;;;;;35.03;10.20;;;;;;;-146.82;100.00;71671.09;5073805;28;21361;-84
2023/08/18 10:02:34;;;;;;;7.65;6.85;;;;;;;-146.82;100.00;71671.09;5106086;28;20036;-84
2023/08/18 10:05:01;;;;;;;28.25;8.20;;;;;;;-146.82;100.00;71671.09;5073918;28;20064;-79
2023/08/18 10:07:27;;;;;;;7.03;5.95;;;;;;;-146.82;100.00;71671.09;5107100;28;20032;-76
2023/08/18 10:09:54;;;;;;;9.25;6.57;;;;;;;-146.82;100.00;71671.09;5072831;28;20078;-77
2023/08/18 10:12:20;;;;;;;15.02;7.22;;;;;;;-146.82;100.00;71671.09;5106692;28;20129;-75
2023/08/18 10:14:47;;;;;;;7.00;6.25;;;;;;;-146.82;100.00;71671.09;5072539;28;20446;-77
2023/08/18 10:17:27;;;;;;;8.93;6.93;;;;;;;-146.82;100.00;71671.09;5071510;28;20068;-77
2023/08/18 10:20:14;;;;;;;8.13;6.43;;;;;;;-146.82;100.00;71671.09;5073611;28;20044;-77
2023/08/18 10:22:44;;;;;;;9.00;6.50;;;;;;;-146.82;100.00;71671.09;5072476;28;20024;-77
2023/08/18 10:25:24;;;;;;;8.55;6.32;;;;;;;-146.82;100.00;71671.09;5053981;28;20078;-77
2023/08/18 10:28:08;;;;;;;9.80;6.93;;;;;;;-146.82;100.00;71671.09;5065103;28;20040;-75
2023/08/18 10:30:34;;;;;;;7.70;6.57;;;;;;;-146.82;100.00;71671.09;5070910;28;20055;-76
2023/08/18 10:33:12;;;;;;;7.28;6.47;;;;;;;-146.82;100.00;71671.09;5106323;28;20037;-77
2023/08/18 10:35:41;;;;;;;7.68;6.40;;;;;;;-146.82;100.00;71671.09;5072403;28;20028;-78
2023/08/18 10:38:07;;;;;;;6.72;6.07;;;;;;;-146.82;100.00;71671.09;5073311;28;20071;-79
2023/08/18 10:40:54;;;;;;;7.25;6.50;;;;;;;-146.82;100.00;71671.09;5072128;28;20063;-76
2023/08/18 10:43:20;;;;;;;9.13;7.57;;;;;;;-146.82;100.00;71671.09;5073238;28;20047;-84
2023/08/18 10:45:59;;;;;;;9.20;6.63;;;;;;;-146.82;100.00;71671.09;5072521;28;20086;-77
2023/08/18 10:48:30;;;;;;;9.27;6.90;;;;;;;-146.82;100.00;71671.09;5073803;28;20075;-78
2023/08/18 10:50:57;;;;;;;9.30;7.85;;;;;;;-146.82;100.00;71671.09;5078506;28;20438;-78
2023/08/18 10:53:26;;;;;;;8.40;7.15;;;;;;;-146.82;100.00;71671.09;5073928;28;20123;-78
2023/08/18 10:55:53;;;;;;;9.73;7.50;;;;;;;-146.82;100.00;71671.09;5055358;28;20056;-82
2023/08/18 10:58:23;;;;;;;12.50;7.63;;;;;;;-146.82;100.00;71671.09;5066567;28;20029;-81
2023/08/18 11:00:52;;;;;;;9.02;7.47;;;;;;;-146.82;100.00;71671.09;5053724;28;20032;-82
2023/08/18 11:03:18;;;;;;;10.45;8.48;;;;;;;-146.82;100.00;71671.09;5049873;28;20131;-78